Natick, Massachusetts
Current Conditions -  °F | °C
As of 2:53 AM on Monday 22 Dec 2014 (Local Time) from KOWD Reporting Station
Overcast Overcast  
Wind Chill: 33°   Ceiling: 2000
Heat Index: 33°   Visibility: 10mi
Dew Point: 26°   Wind: 3mph
Humidity: 75%   Direction: 320°NW
Pressure: 30.35"   Gusts: NA
Location:  42.28°N, 71.35°W
Report Text: KOWD 220753Z AUTO 32003KT 10SM BKN020 OVC055 01/M03 A3035 RMK AO2 SLP279 T00061033
Loading
Personal Weather Stations






























Interactive Weather Map New forecast layout! Learn more

10-Day Weather Forecast

Advertisements
Track Severe Weather on mobile